Tiempo atmosférico en la estación meteorológica de Cabrales, Asturias (458 m.)



Fecha
DESCASC
Temp. máxima en grados centígrados (hora)
DESCASC
Temp. mínima en grados centígrados (hora)
DESCASC
Temp. media en grados centígrados
DESCASC
Racha de viento máxima en m/sg (hora)
DESCASC
Velocidad máxima media en intervalos de 10 minutos(hora)
DESCASC
Precipitaciones diarias en mm
DESCASC
Precipitaciones de 00:00 a 06:00 en mm
DESCASC
Precipitaciones de 06:00 a 12:00 en mm
DESCASC
Precipitaciones de 12:00 a 18:00 en mm
DESCASC
Precipitaciones de 18:00 a 24:00 en mm
DESCASC
18-08-2019 18.4 (05:30) 12.7 (22:50) 15.5 9.17 (17:20) 6.11 (17:40) 7.8 0 0 7 0.8
17-08-2019 30.4 (15:50) 15.1 (03:30) 22.8 8.06 (16:30) 4.17 (01:40) 0 0 0 0 0
16-08-2019 27.4 (16:30) 12.5 (07:30) 19.9 7.5 (17:10) 5.28 (17:50) 0 0 0 0 0
15-08-2019 21.8 (13:50) 14.9 (00:00) 18.3 7.22 (14:30) 5 (14:20) 0.2 0 0.2 0 0
14-08-2019 27.4 (16:00) 12.5 (00:00) 19.9 9.17 (14:40) 6.11 (18:20) 0 0 0 0 0
13-08-2019 23.8 (17:40) 9.9 (00:00) 16.8 6.39 (17:50) 3.89 (18:40) 0 0 0 0 0
12-08-2019 20 (18:00) 11.3 (00:00) 15.7 11.67 (14:10) 8.33 (14:10) 0 0 0 0 0
11-08-2019 18.1 (13:10) 12 (00:00) 15.1 8.06 (19:40) 5.56 (19:30) 9.6 1.6 0 4 4
10-08-2019 21.6 (11:40) 15.5 (00:00) 18.6 6.39 (06:30) 4.17 (13:20) 0.6 0 0.6 0 0
09-08-2019 27.4 (00:00) 18.3 (00:00) 22.8 16.94 (00:30) 10.28 (02:20) 1.4 0 1.4 0 0
08-08-2019 32 (16:20) 17.3 (00:00) 24.6 19.17 (17:50) 10.83 (22:50) 0 0 0 0 0
07-08-2019 28.7 (15:50) 15.7 (00:00) 22.2 7.78 (15:50) 4.72 (00:30) 0.2 0.2 0 0 0
06-08-2019 26.7 (15:10) 15.3 (00:00) 21 8.61 (15:50) 5.83 (15:40) 24.2 0 0 0 24.2
05-08-2019 27.2 (16:10) 16.9 (00:00) 22.1 7.5 (17:00) 5.56 (17:30) 0 0 0 0 0
04-08-2019 21.1 (16:50) 17.1 (00:00) 19.1 6.11 (14:30) 4.17 (15:00) 0 0 0 0 0
03-08-2019 26.1 (15:10) 15.2 (00:00) 20.7 7.5 (15:50) 5 (17:10) 0 0 0 0 0
02-08-2019 27.8 (16:10) 12.9 (00:00) 20.3 7.22 (16:20) 4.72 (20:20) 0 0 0 0 0
01-08-2019 22.6 (14:40) 14 (00:00) 18.3 6.94 (03:20) 4.44 (16:40) 0 0 0 0 0
31-07-2019 23.2 (14:50) 10.3 (00:00) 16.8 9.17 (19:00) 5.28 (12:20) 0 0 0 0 0
30-07-2019 21.4 (16:40) 12.5 (00:00) 16.9 11.39 (14:00) 7.5 (14:00) 0 0 0 0 0
29-07-2019 22.7 (13:20) 14.4 (00:00) 18.6 9.72 (23:30) 5.83 (23:40) 0 0 0 0 0
28-07-2019 25.2 (17:00) 10.9 (00:00) 18.1 7.78 (20:30) 4.44 (22:10) 0.2 0 0.2 0 0
27-07-2019 18.9 (15:30) 12.5 (00:00) 15.7 8.33 (19:10) 5.83 (19:10) 4.6 1.4 1.4 1 0.8
26-07-2019 18.7 (13:40) 13.5 (00:00) 16.1 7.78 (14:30) 5.83 (14:20) 18.8 12.4 5.2 0.2 1
25-07-2019 30.9 (13:20) 17.7 (00:00) 24.3 9.72 (18:40) 6.67 (18:40) 0.2 0 0 0 0.2
24-07-2019 33.4 (16:50) 17.8 (00:00) 25.6 6.11 (21:20) 4.72 (03:30) 0 0 0 0 0
23-07-2019 31.4 (11:20) 19 (00:00) 25.2 23.89 (09:20) 11.39 (09:30) 0.2 0 0 0 0.2
22-07-2019 29.6 (16:10) 17.5 (00:00) 23.6 29.17 (22:10) 19.72 (22:10) 0.2 0 0 0 0.2
21-07-2019 23.7 (13:50) 16 (00:00) 19.9 7.78 (15:00) 4.17 (13:30) 0.2 0 0 0.2 0

Gráficas

Temp. máximas Temp. mínimas Temp. medias Precipitaciones Rachas de viento máximas Velocidades máximas media en intervalos de 10 minutos

Datos horarios

Fecha y hora oficial Temperatura (ºC) Velocidad del viento (km/h) Dirección del viento Racha (km/h) Dirección de racha Precipitación (mm) Presión (hPa) Tendencia (hPa) Humedad (%)
2019-08-19 23:00:00 13.1 7 Sudeste 13 Este 0.2 -- -- 100
2019-08-19 22:00:00 13.4 3 Nordeste 5 Nordeste 0 -- -- 100
2019-08-19 21:00:00 13.7 4 Sudeste 9 Sudeste 0.2 -- -- 99
2019-08-19 20:00:00 13.9 0 Calma 9 Sudeste 0.2 -- -- 98
2019-08-19 19:00:00 13.8 6 Sudeste 28 Este 0.2 -- -- 96
2019-08-19 18:00:00 15.2 9 Sudeste 20 Sudeste 0 -- -- 93
2019-08-19 17:00:00 16.5 3 Noroeste 20 Este 0 -- -- 91
2019-08-19 16:00:00 15.6 4 Oeste 9 Oeste 0 -- -- 91
2019-08-19 15:00:00 15.8 8 Oeste 15 Sudoeste 0 -- -- 88
2019-08-19 14:00:00 16.1 8 Oeste 11 Oeste 0 -- -- 89
2019-08-19 13:00:00 17.6 2 Sudoeste 12 Sudeste 0 -- -- 88
2019-08-19 12:00:00 16 4 Sudeste 7 Este 0 -- -- 100
2019-08-19 11:00:00 14.5 2 Este 10 Sudeste 0.2 -- -- 100
2019-08-19 10:00:00 13.1 6 Sudeste 18 Sudeste 0.2 -- -- 100
2019-08-19 09:00:00 13 6 Sudeste 9 Sudeste 0 -- -- 100
2019-08-19 08:00:00 12.2 3 Oeste 6 Sudoeste 0 -- -- 100
2019-08-19 07:00:00 12.2 2 Nordeste 5 Este 0 -- -- 100
2019-08-19 06:00:00 12.2 5 Sudeste 6 Sudeste 0 -- -- 100
2019-08-19 05:00:00 12 0 Calma 3 Oeste 0.2 -- -- 100
2019-08-19 04:00:00 12.1 0 Calma 9 Sudoeste 0 -- -- 100
2019-08-19 03:00:00 12.5 7 Sudoeste 12 Sudoeste 0.2 -- -- 100
2019-08-19 02:00:00 12.7 3 Noroeste 4 Noroeste 0.4 -- -- 100
2019-08-19 01:00:00 12.7 3 Oeste 6 Oeste 0 -- -- 100
2019-08-19 00:00:00 12.7 5 Norte 13 Oeste 0 -- -- 100
2019-08-18 23:00:00 12.7 9 Oeste 24 Oeste 0.2 -- -- 100
2019-08-18 22:00:00 13.4 15 Oeste 22 Oeste 0.4 -- -- 100
2019-08-18 21:00:00 14 8 Noroeste 12 Noroeste 0.2 -- -- 100
2019-08-18 20:00:00 14.2 9 Oeste 18 Oeste 0 -- -- 100
2019-08-18 19:00:00 14.2 14 Oeste 21 Oeste 0 -- -- 100
2019-08-18 18:00:00 14.5 17 Noroeste 33 Noroeste 0 -- -- 100
2019-08-18 17:00:00 14.9 19 Noroeste 29 Noroeste 0.2 -- -- 100
2019-08-18 16:00:00 16 14 Noroeste 22 Oeste 1.6 -- -- 100
2019-08-18 15:00:00 15.2 13 Oeste 26 Oeste 4.4 -- -- 100
2019-08-18 14:00:00 15.7 19 Noroeste 29 Noroeste 0.4 -- -- 100
2019-08-18 13:00:00 16.5 18 Noroeste 28 Oeste 0.4 -- -- 99
2019-08-18 12:00:00 17.1 19 Noroeste 28 Norte 0 -- -- 97
2019-08-18 11:00:00 17.7 14 Noroeste 24 Oeste 0 -- -- 97
2019-08-18 10:00:00 18.1 8 Noroeste 14 Oeste 0 -- -- 95
2019-08-18 09:00:00 17.7 2 Sudeste 10 Sudeste 0 -- -- 98
2019-08-18 08:00:00 17.4 9 Sudeste 10 Sudeste 0 -- -- 96
2019-08-18 07:00:00 18 3 Noroeste 12 Oeste 0 -- -- 93
2019-08-18 06:00:00 18.2 6 Oeste 15 Oeste 0 -- -- 93
2019-08-18 05:00:00 18.2 14 Oeste 21 Oeste 0 -- -- 94
2019-08-18 04:00:00 17.9 15 Noroeste 22 Oeste 0 -- -- 96
2019-08-18 03:00:00 17.6 8 Sudoeste 10 Sudoeste 0 -- -- 97
2019-08-18 02:00:00 17.4 5 Sur 10 Este 0 -- -- 97
2019-08-18 01:00:00 17.9 6 Sudeste 8 Sudeste 0 -- -- 94
2019-08-18 00:00:00 18.3 4 Este 8 Este 0 -- -- 91
2019-08-17 23:00:00 19.3 2 Oeste 9 Sudoeste 0 -- -- 87
2019-08-17 22:00:00 20.5 7 Sudoeste 13 Sudeste 0 -- -- 83
2019-08-17 21:00:00 23.3 7 Este 21 Sudeste 0 -- -- 72
2019-08-17 20:00:00 25.7 15 Sudeste 22 Este 0 -- -- 65
2019-08-17 19:00:00 27.6 13 Sudeste 22 Sudeste 0 -- -- 59
2019-08-17 18:00:00 29.2 5 Sudoeste 15 Sudeste 0 -- -- 55
2019-08-17 17:00:00 29.5 12 Este 29 Este 0 -- -- 54
2019-08-17 16:00:00 30.2 12 Este 21 Este 0 -- -- 52
2019-08-17 15:00:00 30 8 Sudeste 18 Sudeste 0 -- -- 55
2019-08-17 14:00:00 29 4 Sudeste 15 Este 0 -- -- 57
2019-08-17 13:00:00 27.4 5 Sudeste 14 Sudeste 0 -- -- 61
2019-08-17 12:00:00 25.1 7 Sudeste 14 Sudeste 0 -- -- 67
2019-08-17 11:00:00 21.8 4 Sudoeste 12 Sudeste 0 -- -- 81
2019-08-17 10:00:00 18.3 4 Este 8 Este 0 -- -- 95
2019-08-17 09:00:00 16.6 4 Oeste 8 Oeste 0 -- -- 94
2019-08-17 08:00:00 16.1 0 Calma 6 Sudoeste 0 -- -- 99
2019-08-17 07:00:00 15.4 3 Sudoeste 6 Este 0 -- -- 100
2019-08-17 06:00:00 15.3 4 Este 5 Este 0 -- -- 100
2019-08-17 05:00:00 15.1 2 Sudoeste 8 Sudeste 0 -- -- 100
2019-08-17 04:00:00 15.1 3 Sudeste 12 Sudeste 0 -- -- 100
2019-08-17 03:00:00 15.3 8 Este 11 Este 0 -- -- 100
2019-08-17 02:00:00 15.7 11 Sudeste 17 Sudeste 0 -- -- 99
2019-08-17 01:00:00 16.3 0 Calma 7 Sudoeste 0 -- -- 97
2019-08-17 00:00:00 16.5 3 Sudoeste 9 Sudeste 0 -- -- 95
2019-08-16 23:00:00 17.2 3 Oeste 8 Sudeste 0 -- -- 93
2019-08-16 22:00:00 17.9 3 Sudeste 16 Sudoeste 0 -- -- 89
2019-08-16 21:00:00 19.6 15 Sudoeste 21 Sudoeste 0 -- -- 82
2019-08-16 20:00:00 23 9 Oeste 18 Sudoeste 0 -- -- 70
2019-08-16 19:00:00 24.1 14 Oeste 24 Oeste 0 -- -- 67
2019-08-16 18:00:00 24.9 17 Oeste 27 Oeste 0 -- -- 63
2019-08-16 17:00:00 27.1 14 Noroeste 20 Noroeste 0 -- -- 60
2019-08-16 16:00:00 27.1 11 Oeste 22 Oeste 0 -- -- 58
2019-08-16 15:00:00 26.9 12 Noroeste 21 Noroeste 0 -- -- 56
2019-08-16 14:00:00 26.1 4 Norte 19 Norte 0 -- -- 58
2019-08-16 13:00:00 24.5 9 Norte 23 Noroeste 0 -- -- 64
2019-08-16 12:00:00 22.3 5 Oeste 7 Sudoeste 0 -- -- 70
2019-08-16 11:00:00 18.9 3 Sudoeste 6 Sudoeste 0 -- -- 82
2019-08-16 10:00:00 15.1 6 Sudoeste 7 Sudoeste 0 -- -- 100
2019-08-16 09:00:00 13.3 0 Calma 4 Oeste 0 -- -- 100
2019-08-16 08:00:00 12.5 0 Calma 5 Este 0 -- -- 100
2019-08-16 07:00:00 12.8 4 Sudeste 5 Este 0 -- -- 100
2019-08-16 06:00:00 12.9 3 Este 5 Este 0 -- -- 100
2019-08-16 05:00:00 13.1 0 Calma 6 Sudoeste 0 -- -- 100
2019-08-16 04:00:00 13 3 Nordeste 5 Este 0 -- -- 99
2019-08-16 03:00:00 13.5 4 Sur 6 Este 0 -- -- 98
2019-08-16 02:00:00 13.8 6 Sudoeste 10 Este 0 -- -- 97
2019-08-16 01:00:00 14.4 5 Sudeste 13 Sudeste 0 -- -- 95
2019-08-16 00:00:00 15.4 10 Este 19 Este 0 -- -- 92
2019-08-15 23:00:00 15.9 10 Este 19 Este 0 -- -- 91
2019-08-15 22:00:00 16.2 11 Sudeste 18 Sudeste 0 -- -- 89
2019-08-15 21:00:00 16.8 9 Sudeste 13 Este 0 -- -- 87
2019-08-15 20:00:00 17.5 7 Sudeste 19 Sudeste 0 -- -- 85
2019-08-15 19:00:00 17.8 8 Este 16 Sudeste 0 -- -- 85
2019-08-15 18:00:00 17.9 6 Sudeste 16 Sudeste 0 -- -- 84
2019-08-15 17:00:00 17.7 10 Sudoeste 21 Oeste 0 -- -- 84
2019-08-15 16:00:00 18.7 16 Oeste 25 Oeste 0 -- -- 81
2019-08-15 15:00:00 20 16 Oeste 26 Oeste 0 -- -- 76
2019-08-15 14:00:00 21.8 12 Oeste 21 Oeste 0 -- -- 70
2019-08-15 13:00:00 21.1 10 Oeste 18 Oeste 0 -- -- 70
2019-08-15 12:00:00 20.1 5 Oeste 17 Noroeste 0 -- -- 78
2019-08-15 11:00:00 18 9 Oeste 14 Oeste 0 -- -- 91
2019-08-15 10:00:00 16.5 9 Noroeste 15 Noroeste 0 -- -- 100
2019-08-15 09:00:00 14.9 8 Oeste 13 Oeste 0.2 -- -- 100
2019-08-15 08:00:00 15 8 Oeste 16 Oeste 0 -- -- 100
2019-08-15 07:00:00 15.3 7 Noroeste 15 Noroeste 0 -- -- 100
2019-08-15 06:00:00 15.7 9 Oeste 19 Oeste 0 -- -- 100
2019-08-15 05:00:00 16.1 12 Noroeste 18 Noroeste 0 -- -- 100
2019-08-15 04:00:00 16.7 9 Noroeste 21 Norte 0 -- -- 99
2019-08-15 03:00:00 17.3 12 Noroeste 20 Noroeste 0 -- -- 100
2019-08-15 02:00:00 17.5 13 Noroeste 21 Noroeste 0 -- -- 100
2019-08-15 01:00:00 17.9 9 Noroeste 22 Noroeste 0 -- -- 99
2019-08-15 00:00:00 18.3 15 Noroeste 21 Noroeste 0 -- -- 96
2019-08-14 23:00:00 18.4 8 Oeste 13 Oeste 0 -- -- 94
2019-08-14 22:00:00 18.5 9 Sudoeste 17 Oeste 0 -- -- 92
2019-08-14 21:00:00 19.2 12 Oeste 19 Oeste 0 -- -- 87
2019-08-14 20:00:00 22.2 13 Oeste 24 Oeste 0 -- -- 74
2019-08-14 19:00:00 23.3 16 Oeste 29 Oeste 0 -- -- 67
2019-08-14 18:00:00 23.7 20 Oeste 29 Oeste 0 -- -- 65
2019-08-14 17:00:00 25.6 12 Noroeste 20 Oeste 0 -- -- 59
2019-08-14 16:00:00 27.4 10 Norte 28 Norte 0 -- -- 56
2019-08-14 15:00:00 26.6 10 Norte 33 Oeste 0 -- -- 56
2019-08-14 14:00:00 24.8 19 Noroeste 28 Noroeste 0 -- -- 50
2019-08-14 13:00:00 23.8 8 Norte 21 Norte 0 -- -- 65
2019-08-14 12:00:00 22.8 4 Nordeste 7 Nordeste 0 -- -- 66
2019-08-14 11:00:00 19.6 2 Sudoeste 8 Oeste 0 -- -- 78
2019-08-14 10:00:00 15.9 3 Sudoeste 10 Sudeste 0 -- -- 89
2019-08-14 09:00:00 14.2 5 Sudeste 8 Sudeste 0 -- -- 93
2019-08-14 08:00:00 13 2 Sur 6 Oeste 0 -- -- 92
2019-08-14 07:00:00 13.4 3 Noroeste 9 Oeste 0 -- -- 90
2019-08-14 06:00:00 13.1 5 Sudoeste 8 Sudoeste 0 -- -- 94
2019-08-14 05:00:00 12.8 3 Sudoeste 7 Nordeste 0 -- -- 96
2019-08-14 04:00:00 12.8 4 Sudoeste 9 Este 0 -- -- 96
2019-08-14 03:00:00 12.9 3 Sur 6 Sudoeste 0 -- -- 96
2019-08-14 02:00:00 13.1 5 Este 8 Este 0 -- -- 94
2019-08-14 01:00:00 13.7 0 Calma 4 Este 0 -- -- 92
2019-08-14 00:00:00 14.1 0 Calma 9 Sudeste 0 -- -- 89
2019-08-13 23:00:00 14.6 8 Sudeste 19 Sudeste 0 -- -- 86
2019-08-13 22:00:00 16 14 Sudeste 19 Sudeste 0 -- -- 81
2019-08-13 21:00:00 18.2 10 Sudeste 19 Sudeste 0 -- -- 75
2019-08-13 20:00:00 19 10 Sudeste 19 Este 0 -- -- 75
2019-08-13 19:00:00 20.7 12 Este 22 Sudeste 0 -- -- 68
2019-08-13 18:00:00 22.8 11 Este 23 Este 0 -- -- 66
2019-08-13 17:00:00 21.4 7 Este 17 Sudeste 0 -- -- 71
2019-08-13 16:00:00 22.9 5 Sur 21 Oeste 0 -- -- 63
2019-08-13 15:00:00 22.5 11 Noroeste 21 Noroeste 0 -- -- 61
2019-08-13 14:00:00 22.4 5 Norte 17 Este 0 -- -- 61
2019-08-13 13:00:00 21.7 7 Este 20 Este 0 -- -- 60
2019-08-13 12:00:00 19.5 7 Este 18 Este 0 -- -- 67
2019-08-13 11:00:00 16.6 4 Sudeste 9 Sudeste 0 -- -- 80
2019-08-13 10:00:00 12.4 0 Calma 6 Sur 0 -- -- 98
2019-08-13 09:00:00 11.2 4 Este 10 Sudeste 0 -- -- 100
2019-08-13 08:00:00 10 0 Calma 5 Sudeste 0 -- -- 99
2019-08-13 07:00:00 10.2 5 Este 8 Sudeste 0 -- -- 97
2019-08-13 06:00:00 10.8 4 Oeste 8 Oeste 0 -- -- 97
2019-08-13 05:00:00 10.9 3 Sur 10 Sudeste 0 -- -- 96
2019-08-13 04:00:00 11.8 0 Calma 4 Oeste 0 -- -- 93
2019-08-13 03:00:00 12.2 0 Calma 4 Sudeste 0 -- -- 92
2019-08-13 02:00:00 12.8 3 Sudeste 7 Sur 0 -- -- 88
2019-08-13 01:00:00 13.4 0 Calma 5 Sudeste 0 -- -- 85
2019-08-13 00:00:00 13.8 4 Noroeste 12 Oeste 0 -- -- 85
2019-08-12 23:00:00 14.1 8 Oeste 21 Oeste 0 -- -- 82
2019-08-12 22:00:00 14.2 17 Oeste 23 Oeste 0 -- -- 80
2019-08-12 21:00:00 14.6 12 Oeste 24 Oeste 0 -- -- 83
2019-08-12 20:00:00 15.6 12 Oeste 18 Oeste 0 -- -- 79
2019-08-12 19:00:00 16.7 11 Noroeste 27 Noroeste 0 -- -- 73
2019-08-12 18:00:00 20 15 Norte 31 Norte 0 -- -- 65
2019-08-12 17:00:00 19.3 16 Noroeste 30 Noroeste 0 -- -- 59
2019-08-12 16:00:00 19.7 21 Noroeste 38 Noroeste 0 -- -- 60
2019-08-12 15:00:00 16.3 27 Noroeste 42 Oeste 0 -- -- 70
2019-08-12 14:00:00 17.6 25 Noroeste 37 Oeste 0 -- -- 71
2019-08-12 13:00:00 17.1 21 Noroeste 32 Norte 0 -- -- 70
2019-08-12 12:00:00 16.7 23 Norte 36 Norte 0 -- -- 74
2019-08-12 11:00:00 14.5 14 Noroeste 25 Norte 0 -- -- 83
2019-08-12 10:00:00 14.2 13 Noroeste 26 Noroeste 0 -- -- 81
2019-08-12 09:00:00 12.7 8 Norte 21 Oeste 0 -- -- 85
2019-08-12 08:00:00 11.7 13 Noroeste 24 Norte 0 -- -- 89
2019-08-12 07:00:00 11.4 8 Noroeste 15 Noroeste 0 -- -- 92
2019-08-12 06:00:00 11.6 9 Noroeste 15 Noroeste 0 -- -- 90
2019-08-12 05:00:00 11.5 9 Noroeste 18 Noroeste 0 -- -- 92
2019-08-12 04:00:00 11.4 10 Oeste 16 Oeste 0 -- -- 94
2019-08-12 03:00:00 11.6 6 Noroeste 10 Noroeste 0 -- -- 93
2019-08-12 02:00:00 12 5 Oeste 8 Noroeste 0 -- -- 87
2019-08-12 01:00:00 12.1 3 Noroeste 6 Norte 0 -- -- 87
2019-08-12 00:00:00 12 3 Oeste 5 Oeste 0 -- -- 94
2019-08-11 23:00:00 12.5 3 Noroeste 9 Oeste 0 -- -- 92
2019-08-11 22:00:00 12.4 7 Sudoeste 9 Oeste 0 -- -- 97
2019-08-11 21:00:00 12.7 4 Sudeste 13 Norte 0 -- -- 96
2019-08-11 20:00:00 12.9 11 Norte 29 Oeste 1.6 -- -- 98
2019-08-11 19:00:00 13.6 3 Noroeste 14 Oeste 2.4 -- -- 98
2019-08-11 18:00:00 13.7 10 Sudoeste 27 Oeste 3.2 -- -- 98
2019-08-11 17:00:00 14.8 15 Oeste 26 Oeste 0 -- -- 90
2019-08-11 16:00:00 15.4 9 Oeste 18 Oeste 0.8 -- -- 93
2019-08-11 15:00:00 17.6 4 Norte 27 Norte 0 -- -- 83
2019-08-11 14:00:00 17.1 7 Noroeste 24 Noroeste 0 -- -- 87
2019-08-11 13:00:00 17.9 10 Noroeste 21 Noroeste 0 -- -- 87
2019-08-11 12:00:00 17.2 17 Noroeste 23 Norte 0 -- -- 83
2019-08-11 11:00:00 16.2 5 Oeste 14 Oeste 0 -- -- 93
2019-08-11 10:00:00 14.7 6 Oeste 8 Oeste 0 -- -- 100
2019-08-11 09:00:00 14 4 Noroeste 12 Noroeste 0 -- -- 100
2019-08-11 08:00:00 13.4 9 Noroeste 15 Noroeste 0 -- -- 100
2019-08-11 07:00:00 13.4 10 Oeste 18 Oeste 0 -- -- 100
2019-08-11 06:00:00 13.4 3 Sudeste 21 Sudeste 0.8 -- -- 100
2019-08-11 05:00:00 13.7 9 Sudeste 12 Sudeste 0.8 -- -- 98
2019-08-11 04:00:00 14 9 Noroeste 14 Noroeste 0 -- -- 97
2019-08-11 03:00:00 14.3 8 Oeste 13 Noroeste 0 -- -- 96
2019-08-11 02:00:00 14.8 5 Sudoeste 8 Oeste 0 -- -- 93
2019-08-11 01:00:00 15.3 3 Sudeste 4 Sur 0 -- -- 88
2019-08-11 00:00:00 15.6 0 Calma 3 Sudoeste 0 -- -- 87
2019-08-10 23:00:00 15.6 0 Calma 12 Este 0 -- -- 87
2019-08-10 22:00:00 15.9 6 Sudeste 9 Sudeste 0 -- -- 87
2019-08-10 21:00:00 16.5 3 Sudeste 9 Sudeste 0 -- -- 83
2019-08-10 20:00:00 17.1 6 Este 11 Este 0 -- -- 84
2019-08-10 19:00:00 17.2 3 Nordeste 12 Sur 0 -- -- 84
2019-08-10 18:00:00 16.9 6 Sur 15 Nordeste 0 -- -- 82
2019-08-10 17:00:00 17.5 6 Norte 15 Nordeste 0 -- -- 79
2019-08-10 16:00:00 18.2 12 Nordeste 21 Este 0 -- -- 79
2019-08-10 15:00:00 18.9 9 Sudeste 19 Sudeste 0 -- -- 75
2019-08-10 14:00:00 19.6 5 Norte 22 Norte 0 -- -- 67
2019-08-10 13:00:00 21.1 9 Nordeste 19 Noroeste 0 -- -- 74
2019-08-10 12:00:00 21.1 4 Noroeste 10 Sudoeste 0 -- -- 60
2019-08-10 11:00:00 20.3 5 Norte 10 Nordeste 0 -- -- 67
2019-08-10 10:00:00 17.6 4 Sudeste 8 Este 0 -- -- 91
2019-08-10 09:00:00 16.4 0 Calma 7 Sur 0 -- -- 92
2019-08-10 08:00:00 15.5 3 Sudeste 16 Oeste 0.2 -- -- 93
2019-08-10 07:00:00 15.9 12 Noroeste 23 Oeste 0.4 -- -- 89
2019-08-10 06:00:00 17 0 Calma 13 Sudeste 0 -- -- 98
2019-08-10 05:00:00 17 9 Sudeste 17 Sudeste 0 -- -- 98
2019-08-10 04:00:00 17.3 6 Este 17 Este 0 -- -- 97
2019-08-10 03:00:00 17.7 6 Este 10 Este 0 -- -- 96
2019-08-10 02:00:00 17.9 0 Calma 8 Este 0 -- -- 95
2019-08-10 01:00:00 18.1 5 Sudoeste 9 Sudoeste 0 -- -- 95
2019-08-10 00:00:00 18.3 7 Oeste 11 Oeste 0 -- -- 90
2019-08-09 23:00:00 18.8 8 Oeste 13 Oeste 0 -- -- 87
2019-08-09 22:00:00 19.2 4 Oeste 12 Oeste 0 -- -- 89
2019-08-09 21:00:00 20 5 Sudoeste 9 Sudoeste 0 -- -- 89
2019-08-09 20:00:00 20.8 2 Sur 10 Sur 0 -- -- 85
2019-08-09 19:00:00 21.5 4 Sur 13 Sudeste 0 -- -- 85
2019-08-09 18:00:00 22.1 10 Sudeste 14 Sudeste 0 -- -- 83
2019-08-09 17:00:00 23.9 9 Sudeste 17 Sudeste 0 -- -- 81
2019-08-09 16:00:00 23.2 9 Sur 19 Sudeste 0 -- -- 80
2019-08-09 15:00:00 22.1 8 Sur 15 Sudeste 0 -- -- 85
2019-08-09 14:00:00 22.2 9 Sudeste 26 Este 0 -- -- 85
2019-08-09 13:00:00 22.8 9 Este 19 Este 0 -- -- 90
2019-08-09 12:00:00 22.9 6 Sudeste 19 Sudeste 0 -- -- 89
2019-08-09 11:00:00 21.6 10 Sudeste 31 Sudeste 0 -- -- 97
2019-08-09 10:00:00 20.1 10 Este 27 Este 0.8 -- -- 98
2019-08-09 09:00:00 19.9 7 Sudeste 14 Este 0.6 -- -- 96
2019-08-09 08:00:00 19.8 6 Sudoeste 26 Este 0 -- -- 95
2019-08-09 07:00:00 19.6 10 Sudoeste 38 Sudoeste 0 -- -- 94
2019-08-09 06:00:00 21.7 23 Sudoeste 38 Sudoeste 0 -- -- 84
2019-08-09 05:00:00 25.9 5 Norte 53 Sudoeste 0 -- -- 56
2019-08-09 04:00:00 26.5 31 Sudoeste 55 Sudoeste 0 -- -- 53
2019-08-09 03:00:00 27 18 Sur 54 Sudoeste 0 -- -- 50
2019-08-09 02:00:00 27 20 Sur 54 Sudoeste 0 -- -- 50
2019-08-09 01:00:00 27.3 29 Sur 61 Sudoeste 0 -- -- 49
2019-08-09 00:00:00 27.4 30 Sudoeste 54 Sudoeste 0 -- -- 46
2019-08-08 23:00:00 28 37 Sudoeste 68 Sudoeste 0 -- -- 45
2019-08-08 22:00:00 27.7 9 Sur 38 Sudoeste 0 -- -- 51
2019-08-08 21:00:00 28.8 25 Sur 52 Sudoeste 0 -- -- 48
2019-08-08 20:00:00 29 29 Sudoeste 55 Sudoeste 0 -- -- 49
2019-08-08 19:00:00 29.1 33 Sudoeste 66 Sudoeste 0 -- -- 49
2019-08-08 18:00:00 30.2 32 Sudoeste 69 Sudoeste 0 -- -- 48
2019-08-08 17:00:00 30.3 34 Sudoeste 58 Sudoeste 0 -- -- 50
2019-08-08 16:00:00 30.5 19 Sudoeste 64 Sudoeste 0 -- -- 48
2019-08-08 15:00:00 30.4 30 Sudoeste 55 Sudoeste 0 -- -- 47
2019-08-08 14:00:00 29.9 12 Sudoeste 33 Sudoeste 0 -- -- 51
2019-08-08 13:00:00 29.8 10 Sudoeste 31 Sudoeste 0 -- -- 50
2019-08-08 12:00:00 28.3 5 Norte 13 Nordeste 0 -- -- 61
2019-08-08 11:00:00 25.3 4 Sudeste 21 Este 0 -- -- 72
2019-08-08 10:00:00 21.1 12 Sudeste 20 Sudeste 0 -- -- 86
2019-08-08 09:00:00 18.5 7 Sudeste 13 Oeste 0 -- -- 90
2019-08-08 08:00:00 17.8 4 Oeste 12 Sudoeste 0 -- -- 89
2019-08-08 07:00:00 17.7 7 Oeste 18 Sudoeste 0 -- -- 90
2019-08-08 06:00:00 17.8 2 Nordeste 10 Sudoeste 0 -- -- 89
2019-08-08 05:00:00 17.7 3 Sudeste 7 Este 0 -- -- 92
2019-08-08 04:00:00 17.6 2 Oeste 10 Sudoeste 0 -- -- 95
2019-08-08 03:00:00 17.4 5 Sur 10 Sudoeste 0 -- -- 97
2019-08-08 02:00:00 17.5 3 Este 10 Sudoeste 0 -- -- 95
2019-08-08 01:00:00 17.8 5 Sudeste 14 Sudeste 0 -- -- 94
2019-08-08 00:00:00 18.4 7 Sudeste 13 Sudeste 0 -- -- 93
2019-08-07 23:00:00 19.7 6 Sudeste 10 Sudeste 0 -- -- 87
2019-08-07 22:00:00 20.4 0 Calma 10 Sudeste 0 -- -- 83
2019-08-07 21:00:00 21.4 8 Sudeste 9 Sudeste 0 -- -- 78
2019-08-07 20:00:00 22.2 5 Sudeste 14 Este 0 -- -- 77
2019-08-07 19:00:00 23.5 9 Este 18 Este 0 -- -- 68
2019-08-07 18:00:00 25.8 5 Sudoeste 14 Sudeste 0 -- -- 74
2019-08-07 17:00:00 27.1 9 Este 28 Sudeste 0 -- -- 67
2019-08-07 16:00:00 28.4 15 Este 28 Este 0 -- -- 65
2019-08-07 15:00:00 26.3 13 Este 23 Este 0 -- -- 68
2019-08-07 14:00:00 26.4 9 Este 19 Sudeste 0 -- -- 71
2019-08-07 13:00:00 25.5 7 Sudeste 17 Sudeste 0 -- -- 74
2019-08-07 12:00:00 23 6 Sudeste 13 Sudeste 0 -- -- 84
2019-08-07 11:00:00 20.4 6 Este 13 Sudeste 0 -- -- 100
2019-08-07 10:00:00 18 0 Calma 8 Sudoeste 0 -- -- 100
2019-08-07 09:00:00 15.9 4 Sudoeste 6 Sudoeste 0 -- -- 100
2019-08-07 08:00:00 15.8 4 Este 6 Sudoeste 0 -- -- 100
2019-08-07 07:00:00 15.8 3 Sudoeste 6 Sudoeste 0 -- -- 100
2019-08-07 06:00:00 16.1 3 Oeste 8 Noroeste 0 -- -- 100
2019-08-07 05:00:00 16 4 Noroeste 12 Noroeste 0 -- -- 100
2019-08-07 04:00:00 16.1 6 Oeste 16 Noroeste 0 -- -- 100
2019-08-07 03:00:00 16.2 3 Oeste 9 Sudoeste 0 -- -- 100
2019-08-07 02:00:00 16.4 2 Oeste 13 Sudoeste 0 -- -- 100
2019-08-07 01:00:00 16.4 6 Sudoeste 20 Este 0.2 -- -- 100
2019-08-07 00:00:00 16.6 7 Sur 19 Sudeste 0.2 -- -- 100
2019-08-06 23:00:00 16.6 3 Este 18 Sudeste 0.2 -- -- 100
2019-08-06 22:00:00 16.8 13 Sudeste 16 Sudeste 4 -- -- 100
2019-08-06 21:00:00 16.9 8 Sudeste 13 Sudeste 8.8 -- -- 99
2019-08-06 20:00:00 17.2 5 Sudoeste 28 Noroeste 11 -- -- 98
2019-08-06 19:00:00 19.3 12 Noroeste 29 Oeste 0 -- -- 84
2019-08-06 18:00:00 20.2 19 Oeste 27 Oeste 0 -- -- 81
2019-08-06 17:00:00 22 16 Oeste 23 Oeste 0 -- -- 78
2019-08-06 16:00:00 22.9 16 Oeste 31 Oeste 0 -- -- 77
2019-08-06 15:00:00 26 17 Oeste 25 Oeste 0 -- -- 69
2019-08-06 14:00:00 24.8 12 Noroeste 26 Noroeste 0 -- -- 72
2019-08-06 13:00:00 23.4 10 Noroeste 20 Noroeste 0 -- -- 73
2019-08-06 12:00:00 21.9 3 Oeste 6 Oeste 0 -- -- 80
2019-08-06 11:00:00 20.1 2 Norte 9 Nordeste 0 -- -- 97
2019-08-06 10:00:00 17.5 4 Oeste 10 Noroeste 0 -- -- 100
2019-08-06 09:00:00 16.5 4 Noroeste 12 Oeste 0 -- -- 100
2019-08-06 08:00:00 15.5 5 Noroeste 11 Oeste 0 -- -- 100
2019-08-06 07:00:00 15.3 8 Sudoeste 9 Sudoeste 0 -- -- 100
2019-08-06 06:00:00 15.7 0 Calma 11 Sudoeste 0 -- -- 100
2019-08-06 05:00:00 15.7 5 Sur 10 Sudoeste 0 -- -- 99
2019-08-06 04:00:00 16.2 6 Oeste 12 Oeste 0 -- -- 100
2019-08-06 03:00:00 16.6 7 Sudeste 9 Sudeste 0 -- -- 97
2019-08-06 02:00:00 17.1 3 Sudeste 13 Sudeste 0 -- -- 96
2019-08-06 01:00:00 17.5 12 Sudeste 14 Sudeste 0 -- -- 94
2019-08-06 00:00:00 18.3 9 Sudeste 14 Sudeste 0 -- -- 91
2019-08-05 23:00:00 18.9 3 Sudeste 8 Sudoeste 0 -- -- 92
2019-08-05 22:00:00 19.2 6 Sudoeste 11 Sudoeste 0 -- -- 91
2019-08-05 21:00:00 19.8 8 Sudoeste 18 Sudoeste 0 -- -- 89
2019-08-05 20:00:00 22.4 6 Noroeste 14 Oeste 0 -- -- 80
2019-08-05 19:00:00 22.5 7 Oeste 20 Oeste 0 -- -- 81
2019-08-05 18:00:00 21.7 14 Oeste 27 Oeste 0 -- -- 81
2019-08-05 17:00:00 25.9 19 Oeste 27 Oeste 0 -- -- 69
2019-08-05 16:00:00 26.9 13 Noroeste 21 Noroeste 0 -- -- 63
2019-08-05 15:00:00 26.3 10 Oeste 20 Oeste 0 -- -- 63
2019-08-05 14:00:00 25.7 9 Oeste 18 Oeste 0 -- -- 61
2019-08-05 13:00:00 24.3 6 Noroeste 14 Noroeste 0 -- -- 66
2019-08-05 12:00:00 22.7 6 Sur 13 Sudeste 0 -- -- 77
2019-08-05 11:00:00 19.9 5 Nordeste 9 Este 0 -- -- 93
2019-08-05 10:00:00 17.8 0 Calma 4 Noroeste 0 -- -- 94
2019-08-05 09:00:00 17.2 0 Calma 6 Oeste 0 -- -- 97
2019-08-05 08:00:00 17 0 Calma 10 Oeste 0 -- -- 99
2019-08-05 07:00:00 17.2 2 Sur 6 Sur 0 -- -- 100
2019-08-05 06:00:00 17.2 0 Calma 5 Oeste 0 -- -- 100
2019-08-05 05:00:00 17.2 3 Oeste 6 Sudeste 0 -- -- 99
2019-08-05 04:00:00 17.3 3 Sudeste 6 Sudeste 0 -- -- 99
2019-08-05 03:00:00 17.4 4 Sudeste 10 Este 0 -- -- 99
2019-08-05 02:00:00 17.5 0 Calma 5 Oeste 0 -- -- 99
2019-08-05 01:00:00 17.6 3 Sudeste 8 Sudeste 0 -- -- 98
2019-08-05 00:00:00 17.8 6 Sudeste 7 Sudeste 0 -- -- 97
2019-08-04 23:00:00 18 2 Sur 5 Sudeste 0 -- -- 97
2019-08-04 22:00:00 18.2 3 Sudeste 6 Sur 0 -- -- 95
2019-08-04 21:00:00 18.6 3 Sur 10 Sudeste 0 -- -- 94
2019-08-04 20:00:00 19.2 4 Sur 8 Oeste 0 -- -- 93
2019-08-04 19:00:00 19.8 0 Calma 6 Sur 0 -- -- 89
2019-08-04 18:00:00 20.4 4 Sur 10 Sudeste 0 -- -- 85
2019-08-04 17:00:00 21.1 3 Este 15 Sudoeste 0 -- -- 83
2019-08-04 16:00:00 19.6 12 Oeste 21 Oeste 0 -- -- 86
2019-08-04 15:00:00 19.5 15 Oeste 22 Oeste 0 -- -- 85
2019-08-04 14:00:00 19.7 13 Oeste 20 Oeste 0 -- -- 86
2019-08-04 13:00:00 19.8 10 Oeste 15 Oeste 0 -- -- 87
2019-08-04 12:00:00 20.4 4 Noroeste 8 Noroeste 0 -- -- 87
2019-08-04 11:00:00 19 4 Sudoeste 7 Oeste 0 -- -- 93
2019-08-04 10:00:00 18.1 0 Calma 4 Nordeste 0 -- -- 99
2019-08-04 09:00:00 17.4 2 Oeste 7 Oeste 0 -- -- 99
2019-08-04 08:00:00 17.2 5 Oeste 7 Oeste 0 -- -- 98
2019-08-04 07:00:00 17.3 3 Oeste 6 Oeste 0 -- -- 97
2019-08-04 06:00:00 17.3 5 Oeste 12 Noroeste 0 -- -- 97
2019-08-04 05:00:00 17.2 8 Oeste 12 Oeste 0 -- -- 100
2019-08-04 04:00:00 17.3 7 Oeste 9 Oeste 0 -- -- 100
2019-08-04 03:00:00 17.4 4 Oeste 10 Noroeste 0 -- -- 100
2019-08-04 02:00:00 17.7 0 Calma 5 Sudoeste 0 -- -- 99
2019-08-04 01:00:00 17.9 4 Sudoeste 11 Oeste 0 -- -- 98
2019-08-04 00:00:00 18.2 7 Oeste 10 Oeste 0 -- -- 97
2019-08-03 23:00:00 18.4 6 Oeste 9 Sudoeste 0 -- -- 96
2019-08-03 22:00:00 18.6 7 Sudoeste 15 Oeste 0 -- -- 95
2019-08-03 21:00:00 19.1 13 Oeste 22 Oeste 0 -- -- 92
2019-08-03 20:00:00 22.1 13 Oeste 22 Oeste 0 -- -- 81
2019-08-03 19:00:00 23.7 10 Noroeste 21 Oeste 0 -- -- 76
2019-08-03 18:00:00 24.4 16 Oeste 27 Oeste 0 -- -- 73
2019-08-03 17:00:00 25.2 17 Oeste 24 Oeste 0 -- -- 73
2019-08-03 16:00:00 25.5 16 Noroeste 27 Noroeste 0 -- -- 69
2019-08-03 15:00:00 25.8 15 Noroeste 23 Noroeste 0 -- -- 71
2019-08-03 14:00:00 25.2 16 Noroeste 25 Noroeste 0 -- -- 71
2019-08-03 13:00:00 24.1 13 Noroeste 21 Noroeste 0 -- -- 74
2019-08-03 12:00:00 22.4 6 Noroeste 15 Noroeste 0 -- -- 78
2019-08-03 11:00:00 20.4 3 Norte 11 Oeste 0 -- -- 86
2019-08-03 10:00:00 17.8 6 Noroeste 10 Noroeste 0 -- -- 99
2019-08-03 09:00:00 16.7 2 Este 10 Oeste 0 -- -- 100
2019-08-03 08:00:00 15.6 8 Oeste 12 Oeste 0 -- -- 100
2019-08-03 07:00:00 15.4 3 Oeste 5 Oeste 0 -- -- 100
2019-08-03 06:00:00 15.7 3 Sudeste 9 Sudeste 0 -- -- 100
2019-08-03 05:00:00 15.9 6 Sudeste 7 Sudeste 0 -- -- 98
2019-08-03 04:00:00 16.3 3 Este 10 Sudeste 0 -- -- 97
2019-08-03 03:00:00 17.1 8 Sudeste 10 Sudeste 0 -- -- 97
2019-08-03 02:00:00 17.2 3 Sur 9 Sudeste 0 -- -- 96
2019-08-03 01:00:00 17.6 5 Sudeste 8 Sudeste 0 -- -- 95
2019-08-03 00:00:00 17.8 3 Sudeste 12 Sudeste 0 -- -- 94
2019-08-02 23:00:00 18.1 9 Sudeste 13 Este 0 -- -- 92
2019-08-02 22:00:00 18.6 6 Sudeste 19 Sudeste 0 -- -- 90
2019-08-02 21:00:00 19.4 10 Sudeste 25 Este 0 -- -- 87
2019-08-02 20:00:00 21 15 Sudeste 23 Sudeste 0 -- -- 81
2019-08-02 19:00:00 23 14 Sudeste 23 Este 0 -- -- 76
2019-08-02 18:00:00 24.6 12 Sudeste 23 Este 0 -- -- 70
2019-08-02 17:00:00 26.5 14 Este 26 Este 0 -- -- 65
2019-08-02 16:00:00 27.7 13 Este 23 Sudeste 0 -- -- 63
2019-08-02 15:00:00 27 12 Este 24 Este 0 -- -- 62
2019-08-02 14:00:00 26.3 10 Este 20 Sudeste 0 -- -- 64
2019-08-02 13:00:00 24.2 5 Sudeste 14 Sudeste 0 -- -- 65
2019-08-02 12:00:00 22.4 6 Sudeste 19 Este 0 -- -- 75
2019-08-02 11:00:00 19.5 9 Sudeste 19 Este 0 -- -- 87
2019-08-02 10:00:00 15.9 3 Sudeste 7 Sudeste 0 -- -- 100
2019-08-02 09:00:00 14 0 Calma 4 Sudeste 0 -- -- 100
2019-08-02 08:00:00 13.1 2 Nordeste 5 Este 0 -- -- 100
2019-08-02 07:00:00 13 0 Calma 5 Este 0 -- -- 100
2019-08-02 06:00:00 13.3 0 Calma 7 Sur 0 -- -- 100
2019-08-02 05:00:00 13.7 6 Sudeste 8 Sudeste 0 -- -- 100
2019-08-02 04:00:00 14.2 0 Calma 4 Sur 0 -- -- 100
2019-08-02 03:00:00 14.3 2 Sur 8 Sudeste 0 -- -- 99
2019-08-02 02:00:00 14.7 5 Sudeste 8 Sudeste 0 -- -- 98
2019-08-02 01:00:00 15.1 8 Sudeste 12 Sudeste 0 -- -- 97
2019-08-02 00:00:00 16.1 7 Sudeste 14 Sudeste 0 -- -- 94
2019-08-01 23:00:00 16.6 8 Sudeste 18 Sudeste 0 -- -- 92
2019-08-01 22:00:00 17.1 8 Sudeste 19 Sudeste 0 -- -- 89
2019-08-01 21:00:00 17.8 10 Este 20 Sudeste 0 -- -- 85
2019-08-01 20:00:00 19 7 Este 18 Sudeste 0 -- -- 83
2019-08-01 19:00:00 20 5 Sudoeste 13 Sudoeste 0 -- -- 77
2019-08-01 18:00:00 21.1 8 Sudoeste 22 Oeste 0 -- -- 80
2019-08-01 17:00:00 21.5 14 Oeste 24 Oeste 0 -- -- 78
2019-08-01 16:00:00 22 13 Sudoeste 19 Sudoeste 0 -- -- 73
2019-08-01 15:00:00 22.5 9 Noroeste 15 Noroeste 0 -- -- 73
2019-08-01 14:00:00 20.8 5 Norte 15 Noroeste 0 -- -- 80
2019-08-01 13:00:00 19.6 11 Noroeste 17 Noroeste 0 -- -- 83
2019-08-01 12:00:00 19.8 3 Nordeste 14 Sudeste 0 -- -- 83
2019-08-01 11:00:00 18.5 8 Sudeste 16 Sudeste 0 -- -- 88
2019-08-01 10:00:00 17 6 Sudeste 10 Este 0 -- -- 93
2019-08-01 09:00:00 15.2 6 Sudeste 9 Sudeste 0 -- -- 96
2019-08-01 08:00:00 14.6 5 Sudeste 8 Sudeste 0 -- -- 95
2019-08-01 07:00:00 14.4 0 Calma 11 Sudeste 0 -- -- 94
2019-08-01 06:00:00 14.1 8 Sudeste 14 Sudeste 0 -- -- 96
2019-08-01 05:00:00 14.1 7 Sudeste 13 Sudeste 0 -- -- 95
2019-08-01 04:00:00 14.6 6 Sudeste 25 Sudeste 0 -- -- 94
2019-08-01 03:00:00 14.9 11 Sudeste 22 Sudeste 0 -- -- 93
2019-08-01 02:00:00 15.1 3 Sudeste 12 Este 0 -- -- 94
2019-08-01 01:00:00 15.3 3 Este 8 Sudeste 0 -- -- 93
2019-08-01 00:00:00 15.3 4 Sudeste 19 Este 0 -- -- 93
2019-07-31 23:00:00 15.4 8 Este 26 Este 0 -- -- 92
2019-07-31 22:00:00 15.8 12 Este 21 Este 0 -- -- 89
2019-07-31 21:00:00 16.5 13 Este 23 Este 0 -- -- 85
2019-07-31 20:00:00 17.7 13 Este 26 Sudeste 0 -- -- 81
2019-07-31 19:00:00 18.2 17 Este 33 Este 0 -- -- 79
2019-07-31 18:00:00 20.4 11 Este 24 Sudeste 0 -- -- 73
2019-07-31 17:00:00 22.1 11 Este 28 Este 0 -- -- 69
2019-07-31 16:00:00 22.6 17 Este 29 Este 0 -- -- 65
2019-07-31 15:00:00 22.6 13 Este 25 Este 0 -- -- 65
2019-07-31 14:00:00 21.5 13 Este 29 Este 0 -- -- 65
2019-07-31 13:00:00 21 18 Este 29 Este 0 -- -- 65
2019-07-31 12:00:00 20.1 15 Este 31 Este 0 -- -- 64
2019-07-31 11:00:00 17.6 7 Este 17 Este 0 -- -- 77
2019-07-31 10:00:00 13.1 2 Oeste 5 Oeste 0 -- -- 100
2019-07-31 09:00:00 10.9 3 Oeste 9 Sudeste 0 -- -- 100
2019-07-31 08:00:00 10.5 5 Sudeste 8 Sudeste 0 -- -- 100
2019-07-31 07:00:00 10.4 5 Sudeste 6 Sudeste 0 -- -- 100
2019-07-31 06:00:00 10.8 3 Este 6 Sudeste 0 -- -- 99
2019-07-31 05:00:00 11.2 6 Sudeste 8 Sudeste 0 -- -- 99
2019-07-31 04:00:00 11.7 3 Sudeste 6 Sudeste 0 -- -- 97
2019-07-31 03:00:00 12.3 4 Sudeste 10 Sudeste 0 -- -- 95
2019-07-31 02:00:00 13 2 Sur 3 Sudoeste 0 -- -- 93
2019-07-31 01:00:00 13.1 0 Calma 5 Este 0 -- -- 92
2019-07-31 00:00:00 13.2 5 Sudeste 14 Sur 0 -- -- 93
2019-07-30 23:00:00 13.4 9 Sudeste 12 Sudeste 0 -- -- 92
2019-07-30 22:00:00 13.8 3 Sur 8 Oeste 0 -- -- 86
2019-07-30 21:00:00 14.2 8 Sudoeste 17 Sudoeste 0 -- -- 85
2019-07-30 20:00:00 14.6 13 Sudoeste 17 Oeste 0 -- -- 83
2019-07-30 19:00:00 15.5 9 Oeste 21 Noroeste 0 -- -- 79
2019-07-30 18:00:00 17.4 12 Noroeste 23 Norte 0 -- -- 72
2019-07-30 17:00:00 20.4 12 Noroeste 24 Norte 0 -- -- 62
2019-07-30 16:00:00 20.4 15 Norte 30 Norte 0 -- -- 62
2019-07-30 15:00:00 19.6 17 Noroeste 35 Norte 0 -- -- 58
2019-07-30 14:00:00 19.9 27 Norte 41 Noroeste 0 -- -- 51
2019-07-30 13:00:00 19.7 22 Noroeste 35 Noroeste 0 -- -- 56
2019-07-30 12:00:00 17.8 21 Noroeste 37 Oeste 0 -- -- 63
2019-07-30 11:00:00 15.5 22 Oeste 32 Oeste 0 -- -- 69
2019-07-30 10:00:00 15.5 13 Noroeste 21 Noroeste 0 -- -- 70
2019-07-30 09:00:00 14 5 Norte 28 Noroeste 0 -- -- 76
2019-07-30 08:00:00 13.4 18 Noroeste 27 Noroeste 0 -- -- 75
2019-07-30 07:00:00 12.5 14 Noroeste 28 Noroeste 0 -- -- 78
2019-07-30 06:00:00 12.9 11 Noroeste 19 Noroeste 0 -- -- 74
2019-07-30 05:00:00 12.6 11 Noroeste 19 Norte 0 -- -- 79
2019-07-30 04:00:00 13.3 15 Noroeste 28 Noroeste 0 -- -- 76
2019-07-30 03:00:00 13.9 19 Noroeste 31 Noroeste 0 -- -- 75
2019-07-30 02:00:00 14 17 Noroeste 25 Norte 0 -- -- 81
2019-07-30 01:00:00 14.3 14 Noroeste 29 Noroeste 0 -- -- 84
2019-07-30 00:00:00 14.8 19 Norte 35 Noroeste 0 -- -- 84
2019-07-29 23:00:00 15.5 18 Noroeste 31 Noroeste 0 -- -- 83
2019-07-29 22:00:00 15.4 12 Noroeste 15 Noroeste 0 -- -- 92
2019-07-29 21:00:00 16 10 Noroeste 26 Norte 0 -- -- 89
2019-07-29 20:00:00 17.5 12 Noroeste 26 Oeste 0 -- -- 79
2019-07-29 19:00:00 20.7 15 Oeste 23 Norte 0 -- -- 71
2019-07-29 18:00:00 21.5 8 Sudoeste 17 Oeste 0 -- -- 69
2019-07-29 17:00:00 21.1 5 Nordeste 13 Noroeste 0 -- -- 73
2019-07-29 16:00:00 19 6 Noroeste 22 Oeste 0 -- -- 81
2019-07-29 15:00:00 18.3 15 Oeste 24 Oeste 0 -- -- 83
2019-07-29 14:00:00 19.5 14 Oeste 19 Oeste 0 -- -- 79
2019-07-29 13:00:00 21.9 6 Este 21 Sudeste 0 -- -- 74
2019-07-29 12:00:00 21.5 6 Sudeste 17 Sudeste 0 -- -- 76
2019-07-29 11:00:00 21.7 6 Este 10 Este 0 -- -- 71
2019-07-29 10:00:00 17.4 3 Oeste 6 Sudoeste 0 -- -- 82
2019-07-29 09:00:00 15.9 4 Sudeste 15 Oeste 0 -- -- 89
2019-07-29 08:00:00 15.7 12 Oeste 21 Oeste 0 -- -- 88
2019-07-29 07:00:00 14.5 7 Oeste 10 Sudoeste 0 -- -- 98
2019-07-29 06:00:00 14.8 5 Sudeste 9 Sudeste 0 -- -- 96
2019-07-29 05:00:00 15.2 0 Calma 9 Oeste 0 -- -- 98
2019-07-29 04:00:00 14.9 6 Oeste 14 Noroeste 0 -- -- 98
2019-07-29 03:00:00 14.7 5 Oeste 8 Oeste 0 -- -- 98
2019-07-29 02:00:00 14.8 3 Este 5 Sudeste 0 -- -- 96
2019-07-29 01:00:00 14.7 4 Este 10 Este 0 -- -- 96
2019-07-29 00:00:00 15.1 8 Este 13 Este 0 -- -- 93
2019-07-28 23:00:00 15.7 12 Sudeste 22 Sudeste 0 -- -- 91
2019-07-28 22:00:00 17.1 15 Sudeste 22 Sudeste 0 -- -- 85
2019-07-28 21:00:00 20.4 10 Sudeste 28 Este 0 -- -- 74
2019-07-28 20:00:00 22.7 13 Este 23 Este 0 -- -- 70
2019-07-28 19:00:00 23.6 8 Este 20 Sudeste 0 -- -- 66
2019-07-28 18:00:00 24.8 12 Este 23 Este 0 -- -- 62
2019-07-28 17:00:00 25.2 11 Este 24 Nordeste 0 -- -- 63
2019-07-28 16:00:00 24 15 Este 24 Este 0 -- -- 69
2019-07-28 15:00:00 22.2 8 Este 19 Este 0 -- -- 71
2019-07-28 14:00:00 22.2 8 Oeste 16 Oeste 0 -- -- 62
2019-07-28 13:00:00 22.1 6 Sudeste 15 Este 0 -- -- 70
2019-07-28 12:00:00 19.3 3 Noroeste 9 Oeste 0 -- -- 74
2019-07-28 11:00:00 16.9 3 Noroeste 9 Este 0 -- -- 87
2019-07-28 10:00:00 13.5 3 Nordeste 7 Este 0 -- -- 100
2019-07-28 09:00:00 11.8 4 Sur 6 Sur 0 -- -- 100
2019-07-28 08:00:00 10.9 0 Calma 9 Nordeste 0 -- -- 100
2019-07-28 07:00:00 11.4 0 Calma 5 Sudoeste 0.2 -- -- 100
2019-07-28 06:00:00 11.5 2 Noroeste 6 Oeste 0 -- -- 100
2019-07-28 05:00:00 11.9 0 Calma 6 Sudoeste 0 -- -- 100
2019-07-28 04:00:00 12.1 4 Oeste 9 Noroeste 0 -- -- 100
2019-07-28 03:00:00 12.5 4 Noroeste 7 Oeste 0 -- -- 100
2019-07-28 02:00:00 12.5 6 Oeste 9 Oeste 0 -- -- 100
2019-07-28 01:00:00 12.8 3 Sudoeste 9 Norte 0 -- -- 100
2019-07-28 00:00:00 13.2 7 Norte 12 Oeste 0 -- -- 100
2019-07-27 23:00:00 13.2 11 Oeste 24 Oeste 0.2 -- -- 99
2019-07-26 12:00:00 16.6 6 Norte 19 Oeste 0 -- -- 98
2019-07-26 11:00:00 15.7 11 Noroeste 15 Norte 0 -- -- 99
2019-07-26 10:00:00 14.8 8 Noroeste 16 Norte 1 -- -- 100
2019-07-26 09:00:00 14.6 6 Noroeste 27 Oeste 1.2 -- -- 100
2019-07-26 08:00:00 15 12 Noroeste 21 Noroeste 1.2 -- -- 100
2019-07-26 07:00:00 15.5 14 Oeste 24 Oeste 1.8 -- -- 100
2019-07-26 06:00:00 15.4 17 Oeste 28 Sudoeste 4.8 -- -- 100
2019-07-26 05:00:00 15.9 11 Oeste 19 Oeste 4.6 -- -- 100
2019-07-26 04:00:00 16.1 5 Oeste 18 Oeste 0.8 -- -- 100
2019-07-26 03:00:00 16.3 14 Oeste 20 Sudoeste 1.4 -- -- 100
2019-07-26 02:00:00 16.8 10 Oeste 23 Oeste 0 -- -- 100
2019-07-26 01:00:00 17.3 8 Oeste 19 Este 0.8 -- -- 98
2019-07-26 00:00:00 17.7 8 Este 25 Este 0.2 -- -- 96
2019-07-25 23:00:00 17.8 8 Sudeste 14 Este 0 -- -- 95
2019-07-25 22:00:00 17.9 10 Sudoeste 21 Oeste 0 -- -- 93
2019-07-25 21:00:00 18.3 15 Oeste 24 Oeste 0 -- -- 91
2019-07-25 20:00:00 19.6 19 Oeste 28 Oeste 0 -- -- 88
2019-07-25 19:00:00 21.1 18 Oeste 35 Oeste 0 -- -- 76
2019-07-25 18:00:00 25.8 14 Sudoeste 25 Sudeste 0 -- -- 65
2019-07-25 17:00:00 28.3 13 Este 26 Este 0 -- -- 63
2019-07-25 16:00:00 23.7 13 Sudoeste 30 Oeste 0 -- -- 80
2019-07-25 15:00:00 25.7 16 Oeste 24 Oeste 0 -- -- 73
2019-07-25 14:00:00 27.8 13 Oeste 32 Sur 0 -- -- 65
2019-07-25 13:00:00 29.5 7 Nordeste 17 Este 0 -- -- 64
2019-07-25 12:00:00 26.1 8 Oeste 12 Norte 0 -- -- 67
2019-07-25 11:00:00 24.5 4 Sudeste 10 Este 0 -- -- 89
2019-07-25 10:00:00 20.2 4 Noroeste 9 Nordeste 0 -- -- 100
2019-07-25 09:00:00 18.4 4 Oeste 10 Noroeste 0 -- -- 100
2019-07-25 08:00:00 18.2 3 Sudoeste 7 Sudoeste 0 -- -- 100
2019-07-25 07:00:00 18.3 3 Oeste 12 Oeste 0 -- -- 100
2019-07-25 06:00:00 18.7 8 Sudeste 17 Sudeste 0 -- -- 100
2019-07-25 05:00:00 18.8 6 Sudeste 8 Este 0 -- -- 100
2019-07-25 04:00:00 19.2 3 Oeste 6 Oeste 0 -- -- 100
2019-07-25 03:00:00 19.7 3 Oeste 5 Noroeste 0 -- -- 99
2019-07-25 02:00:00 20 3 Oeste 10 Oeste 0 -- -- 98
2019-07-25 01:00:00 20.4 7 Oeste 15 Noroeste 0 -- -- 97
2019-07-25 00:00:00 20.8 11 Noroeste 22 Oeste 0 -- -- 99
2019-07-24 23:00:00 20.9 6 Noroeste 11 Noroeste 0 -- -- 98
2019-07-24 22:00:00 21.3 10 Oeste 22 Oeste 0 -- -- 96
2019-07-24 21:00:00 24.5 14 Oeste 20 Oeste 0 -- -- 82
2019-07-24 20:00:00 30.1 3 Nordeste 20 Oeste 0 -- -- 66
2019-07-24 19:00:00 30.7 8 Oeste 22 Sudoeste 0 -- -- 65
2019-07-24 18:00:00 32.8 9 Noroeste 18 Noroeste 0 -- -- 58
2019-07-24 17:00:00 33.1 12 Sur 22 Sudeste 0 -- -- 57
2019-07-24 16:00:00 32.6 9 Sudeste 19 Este 0 -- -- 59
2019-07-24 15:00:00 31.1 8 Sudeste 16 Sudeste 0 -- -- 63
2019-07-24 14:00:00 29.2 6 Sudeste 17 Este 0 -- -- 69
2019-07-24 13:00:00 26.1 7 Sur 13 Nordeste 0 -- -- 70
2019-07-24 12:00:00 22.4 5 Noroeste 13 Oeste 0 -- -- 86
2019-07-24 11:00:00 21.3 4 Noroeste 19 Sudeste 0 -- -- 90
2019-07-24 10:00:00 19.1 10 Este 20 Este 0 -- -- 100
2019-07-24 09:00:00 18.3 5 Este 15 Sudeste 0 -- -- 100
2019-07-24 08:00:00 18 8 Este 13 Este 0 -- -- 100
2019-07-24 07:00:00 18.1 5 Este 11 Este 0 -- -- 100
2019-07-24 06:00:00 18 2 Este 6 Oeste 0 -- -- 100
2019-07-24 05:00:00 18 3 Sudoeste 13 Sudoeste 0 -- -- 100
2019-07-24 04:00:00 17.8 9 Oeste 22 Oeste 0 -- -- 100
2019-07-24 03:00:00 18 14 Oeste 21 Oeste 0 -- -- 100
2019-07-24 02:00:00 18.3 12 Oeste 15 Oeste 0 -- -- 99
2019-07-24 01:00:00 18.8 3 Noroeste 19 Oeste 0 -- -- 98
2019-07-24 00:00:00 19 19 Sudeste 33 Este 0 -- -- 99
2019-07-23 23:00:00 19.1 24 Sudeste 44 Oeste 0.2 -- -- 97
2019-07-23 22:00:00 19.9 11 Noroeste 37 Sudeste 0 -- -- 94
2019-07-23 21:00:00 20.2 10 Este 36 Noroeste 0 -- -- 91
2019-07-23 20:00:00 21 18 Oeste 38 Oeste 0 -- -- 89
2019-07-23 19:00:00 25.8 26 Oeste 37 Oeste 0 -- -- 70
2019-07-23 18:00:00 29.7 20 Oeste 28 Oeste 0 -- -- 56
2019-07-23 17:00:00 29.8 15 Oeste 31 Sudoeste 0 -- -- 59
2019-07-23 16:00:00 29.7 4 Sur 17 Sudeste 0 -- -- 63
2019-07-23 15:00:00 29 7 Noroeste 29 Sur 0 -- -- 63
2019-07-23 14:00:00 27.2 13 Sur 22 Sur 0 -- -- 64
2019-07-23 13:00:00 29.4 13 Sudeste 25 Oeste 0 -- -- 57
2019-07-23 12:00:00 27.6 24 Oeste 33 Oeste 0 -- -- 54
2019-07-23 11:00:00 31.2 11 Este 68 Sudoeste 0 -- -- 43
2019-07-23 10:00:00 28.9 21 Sudoeste 86 Sudoeste 0 -- -- 38
2019-07-23 09:00:00 21.2 15 Sur 44 Sudoeste 0 -- -- 69
2019-07-23 08:00:00 19.9 6 Oeste 13 Oeste 0 -- -- 73
2019-07-23 07:00:00 20.3 5 Oeste 9 Oeste 0 -- -- 72
2019-07-23 06:00:00 19.9 6 Oeste 12 Este 0 -- -- 77
2019-07-23 05:00:00 20.3 3 Este 18 Sudoeste 0 -- -- 75
2019-07-23 04:00:00 20.4 9 Este 16 Este 0 -- -- 79
2019-07-23 03:00:00 20.9 14 Oeste 30 Sudeste 0 -- -- 75
2019-07-23 02:00:00 21.4 17 Sudeste 36 Sudeste 0 -- -- 74
2019-07-23 01:00:00 21.7 22 Sudeste 33 Sudeste 0 -- -- 74
2019-07-23 00:00:00 22.3 6 Nordeste 27 Sudoeste 0 -- -- 69
2019-07-22 23:00:00 24.2 11 Nordeste 105 Sudoeste 0.2 -- -- 69
2019-07-22 22:00:00 -- 26 Sudoeste 63 Sudoeste 0 -- -- --
2019-07-22 21:00:00 23 6 Sudeste 14 Oeste 0 -- -- 87
2019-07-22 20:00:00 23.5 7 Oeste 12 Oeste 0 -- -- 82
2019-07-22 19:00:00 25.7 8 Noroeste 19 Oeste 0 -- -- 76
2019-07-22 18:00:00 26.4 13 Oeste 22 Oeste 0 -- -- 73
2019-07-22 17:00:00 28.6 13 Noroeste 21 Oeste 0 -- -- 67
2019-07-22 16:00:00 28.9 6 Este 15 Este 0 -- -- 66
2019-07-22 15:00:00 27.6 5 Sur 12 Oeste 0 -- -- 70
2019-07-22 14:00:00 26.4 3 Norte 9 Este 0 -- -- 69
2019-07-22 13:00:00 24.8 4 Nordeste 10 Nordeste 0 -- -- 75
2019-07-22 12:00:00 24.3 4 Norte 13 Este 0 -- -- 77
2019-07-22 11:00:00 23.1 6 Este 12 Este 0 -- -- 84
2019-07-22 10:00:00 19.4 4 Sudeste 9 Sudeste 0 -- -- 99
2019-07-22 09:00:00 18.1 6 Sudeste 13 Sudeste 0 -- -- 100
2019-07-22 08:00:00 17.6 7 Sudeste 15 Este 0 -- -- 100
2019-07-22 07:00:00 17.5 6 Sudeste 12 Sudeste 0 -- -- 100
2019-07-22 06:00:00 17.6 6 Sudeste 10 Sudeste 0 -- -- 100
2019-07-22 05:00:00 17.6 7 Sudeste 17 Este 0 -- -- 100
2019-07-22 04:00:00 17.7 8 Sudeste 15 Este 0 -- -- 100
2019-07-22 03:00:00 17.7 9 Sudeste 16 Este 0 -- -- 100
2019-07-22 02:00:00 17.7 4 Sudeste 9 Sudeste 0 -- -- 100
2019-07-22 01:00:00 17.8 6 Sudeste 12 Sudeste 0 -- -- 100
2019-07-22 00:00:00 17.8 7 Este 24 Este 0 -- -- 99
2019-07-21 23:00:00 17.9 8 Este 22 Este 0 -- -- 98
2019-07-21 22:00:00 17.9 11 Sudeste 21 Sudeste 0 -- -- 96
2019-07-21 21:00:00 18.3 10 Sudeste 25 Este 0 -- -- 97
2019-07-21 20:00:00 18.8 12 Este 24 Este 0 -- -- 95
2019-07-21 19:00:00 19.2 10 Sudeste 24 Este 0 -- -- 94
2019-07-21 18:00:00 19.3 8 Sudeste 12 Este 0.2 -- -- 97
2019-07-21 17:00:00 19.3 6 Sudoeste 18 Oeste 0 -- -- 93
2019-07-21 16:00:00 20.5 9 Oeste 15 Oeste 0 -- -- 87
2019-07-21 15:00:00 23 11 Este 28 Este 0 -- -- 81
2019-07-21 14:00:00 23.6 11 Este 27 Sudeste 0 -- -- 80
2019-07-21 13:00:00 21.8 10 Sudeste 25 Este 0 -- -- 89
2019-07-21 12:00:00 19.6 10 Sudeste 22 Este 0 -- -- 100
2019-07-21 11:00:00 18.6 6 Este 13 Este 0 -- -- 100
2019-07-21 10:00:00 16.9 3 Sudoeste 6 Sudoeste 0 -- -- 100
2019-07-21 09:00:00 16.3 5 Oeste 9 Sudoeste 0 -- -- 100
2019-07-21 08:00:00 16.2 6 Oeste 8 Oeste 0 -- -- 100
2019-07-21 07:00:00 16.2 3 Sudoeste 9 Sur 0 -- -- 100
2019-07-21 06:00:00 16.2 0 Calma 7 Oeste 0 -- -- 100
2019-07-21 05:00:00 16.1 4 Oeste 11 Sudoeste 0 -- -- 100
2019-07-21 04:00:00 16.1 4 Sudoeste 7 Sudeste 0 -- -- 100
2019-07-21 03:00:00 16.2 6 Sudeste 9 Sudeste 0 -- -- 100
2019-07-21 02:00:00 16.1 0 Calma 5 Sudoeste 0 -- -- 100
2019-07-21 01:00:00 16.1 2 Noroeste 11 Sudoeste 0 -- -- 100
2019-07-21 00:00:00 16.5 4 Sudoeste 7 Sudoeste 0.2 -- -- 100